KLM213 EGKK-EDDF
Flight info
| Callsign | KLM213 |
|---|---|
| Flight time | N/A |
| Altitude | 35000 |
| Route | ODVIK Y311 DVR L9 KONAN UL607 KOK DCT REMBA UL607 SPI T180 NIVNU/N0444F230 T847 IMCOM IMCOM1B |
| Aircraft | B77W/H-SDE1E2E3FGHIJ2J3J4J5M1RWXY/LB1D1 |
Departure
| Time | 2026-05-06 13:40 |
|---|---|
| Airport | London Gatwick Airport (EGKK) |
Arrival
| Time | N/A |
|---|---|
| Airport | Frankfurt Main Airport (EDDF) |
| Time | Latitude | Longitude | Altitude | Speed | Heading |
|---|---|---|---|---|---|
| 2026-05-06 13:04 | 51.15856 | -0.17415 | 210 ft | 0 kts | 348° |
| 2026-05-06 13:16 | 51.15838 | -0.17409 | 217 ft | 3 kts | 348° |
| 2026-05-06 13:16 | 51.15818 | -0.17401 | 220 ft | 3 kts | 345° |
| 2026-05-06 13:17 | 51.15799 | -0.17392 | 213 ft | 3 kts | 336° |
| 2026-05-06 13:17 | 51.15786 | -0.17381 | 224 ft | 2 kts | 299° |
| 2026-05-06 13:17 | 51.15783 | -0.17359 | 223 ft | 1 kts | 261° |
| 2026-05-06 13:17 | 51.15785 | -0.17345 | 220 ft | 1 kts | 257° |
| 2026-05-06 13:18 | 51.15787 | -0.17332 | 221 ft | 1 kts | 256° |
| 2026-05-06 13:18 | 51.15787 | -0.17331 | 221 ft | 0 kts | 256° |
| 2026-05-06 13:24 | 51.15786 | -0.17336 | 210 ft | 2 kts | 256° |
| 2026-05-06 13:24 | 51.15780 | -0.17377 | 214 ft | 6 kts | 256° |
| 2026-05-06 13:24 | 51.15767 | -0.17463 | 216 ft | 10 kts | 258° |
| 2026-05-06 13:25 | 51.15750 | -0.17590 | 217 ft | 14 kts | 258° |
| 2026-05-06 13:25 | 51.15730 | -0.17743 | 214 ft | 15 kts | 257° |
| 2026-05-06 13:25 | 51.15705 | -0.17927 | 219 ft | 19 kts | 257° |
| 2026-05-06 13:25 | 51.15678 | -0.18126 | 215 ft | 19 kts | 257° |
| 2026-05-06 13:26 | 51.15652 | -0.18299 | 216 ft | 13 kts | 253° |
| 2026-05-06 13:26 | 51.15570 | -0.18344 | 214 ft | 15 kts | 171° |
| 2026-05-06 13:26 | 51.15481 | -0.18312 | 215 ft | 14 kts | 167° |
| 2026-05-06 13:26 | 51.15396 | -0.18282 | 212 ft | 14 kts | 168° |
| 2026-05-06 13:27 | 51.15292 | -0.18247 | 214 ft | 14 kts | 167° |
| 2026-05-06 13:27 | 51.15200 | -0.18257 | 218 ft | 14 kts | 231° |
| 2026-05-06 13:27 | 51.15173 | -0.18429 | 218 ft | 18 kts | 257° |
| 2026-05-06 13:27 | 51.15144 | -0.18637 | 219 ft | 21 kts | 258° |
| 2026-05-06 13:28 | 51.15111 | -0.18880 | 219 ft | 24 kts | 258° |
| 2026-05-06 13:28 | 51.15075 | -0.19151 | 217 ft | 26 kts | 258° |
| 2026-05-06 13:28 | 51.15034 | -0.19449 | 213 ft | 29 kts | 258° |
| 2026-05-06 13:28 | 51.14989 | -0.19768 | 213 ft | 30 kts | 257° |
| 2026-05-06 13:29 | 51.14945 | -0.20089 | 217 ft | 30 kts | 257° |
| 2026-05-06 13:29 | 51.14900 | -0.20411 | 217 ft | 30 kts | 258° |
| 2026-05-06 13:29 | 51.14855 | -0.20732 | 218 ft | 30 kts | 258° |
| 2026-05-06 13:29 | 51.14816 | -0.21019 | 216 ft | 24 kts | 257° |
| 2026-05-06 13:30 | 51.14778 | -0.21232 | 214 ft | 19 kts | 254° |
| 2026-05-06 13:30 | 51.14744 | -0.21385 | 214 ft | 13 kts | 219° |
| 2026-05-06 13:30 | 51.14667 | -0.21358 | 219 ft | 10 kts | 149° |
| 2026-05-06 13:30 | 51.14635 | -0.21338 | 218 ft | 0 kts | 165° |
| 2026-05-06 13:37 | 51.14634 | -0.21338 | 210 ft | 1 kts | 165° |
| 2026-05-06 13:38 | 51.14596 | -0.21322 | 215 ft | 10 kts | 165° |
| 2026-05-06 13:38 | 51.14534 | -0.21258 | 220 ft | 11 kts | 134° |
| 2026-05-06 13:38 | 51.14523 | -0.21145 | 217 ft | 10 kts | 77° |
| 2026-05-06 13:38 | 51.14525 | -0.21131 | 216 ft | 0 kts | 76° |
| 2026-05-06 13:39 | 51.14530 | -0.21096 | 219 ft | 14 kts | 76° |
| 2026-05-06 13:39 | 51.14597 | -0.20622 | 219 ft | 81 kts | 77° |
| 2026-05-06 13:39 | 51.14770 | -0.19370 | 219 ft | 148 kts | 77° |
| 2026-05-06 13:39 | 51.15034 | -0.17534 | 422 ft | 179 kts | 75° |
| 2026-05-06 13:40 | 51.15371 | -0.15085 | 1500 ft | 176 kts | 74° |
| 2026-05-06 13:40 | 51.15544 | -0.13825 | 1998 ft | 180 kts | 74° |
| 2026-05-06 13:40 | 51.15827 | -0.11755 | 2335 ft | 201 kts | 74° |
| 2026-05-06 13:40 | 51.16140 | -0.09487 | 2588 ft | 225 kts | 74° |
| 2026-05-06 13:41 | 51.16494 | -0.06891 | 2948 ft | 248 kts | 75° |
| 2026-05-06 13:41 | 51.16856 | -0.04177 | 3684 ft | 254 kts | 77° |
| 2026-05-06 13:41 | 51.16970 | -0.01314 | 4405 ft | 263 kts | 88° |
| 2026-05-06 13:41 | 51.16885 | 0.01609 | 5271 ft | 263 kts | 91° |
| 2026-05-06 13:42 | 51.16709 | 0.04518 | 6104 ft | 266 kts | 94° |
| 2026-05-06 13:42 | 51.16464 | 0.07476 | 6841 ft | 272 kts | 95° |
| 2026-05-06 13:42 | 51.16200 | 0.10502 | 7544 ft | 278 kts | 96° |
| 2026-05-06 13:42 | 51.15931 | 0.13576 | 8283 ft | 282 kts | 95° |
| 2026-05-06 13:43 | 51.15660 | 0.16696 | 9029 ft | 288 kts | 95° |
| 2026-05-06 13:43 | 51.15386 | 0.19879 | 9759 ft | 292 kts | 95° |
| 2026-05-06 13:43 | 51.15111 | 0.23105 | 10429 ft | 298 kts | 96° |
| 2026-05-06 13:43 | 51.14825 | 0.26474 | 10731 ft | 319 kts | 96° |
| 2026-05-06 13:44 | 51.14518 | 0.30118 | 10949 ft | 344 kts | 96° |
| 2026-05-06 13:44 | 51.14188 | 0.34023 | 11141 ft | 369 kts | 96° |
| 2026-05-06 13:44 | 51.13838 | 0.38138 | 11822 ft | 378 kts | 96° |
| 2026-05-06 13:44 | 51.13481 | 0.42306 | 12732 ft | 383 kts | 96° |
| 2026-05-06 13:45 | 51.13118 | 0.46522 | 13779 ft | 385 kts | 97° |
| 2026-05-06 13:45 | 51.12392 | 0.54933 | 15745 ft | 387 kts | 97° |
| 2026-05-06 13:45 | 51.12018 | 0.59252 | 16312 ft | 399 kts | 97° |
| 2026-05-06 13:46 | 51.11636 | 0.63645 | 17223 ft | 402 kts | 98° |
| 2026-05-06 13:46 | 51.11249 | 0.68074 | 18042 ft | 408 kts | 98° |
| 2026-05-06 13:46 | 51.10848 | 0.72644 | 18771 ft | 413 kts | 98° |
| 2026-05-06 13:46 | 51.10453 | 0.77139 | 19418 ft | 419 kts | 98° |
| 2026-05-06 13:47 | 51.10045 | 0.81747 | 20154 ft | 423 kts | 98° |
| 2026-05-06 13:47 | 51.09631 | 0.86399 | 20881 ft | 427 kts | 98° |
| 2026-05-06 13:47 | 51.09204 | 0.91174 | 21550 ft | 433 kts | 99° |
| 2026-05-06 13:47 | 51.08781 | 0.95884 | 22185 ft | 439 kts | 99° |